sensor_id;sensor_type;location;lat;lon;timestamp;pressure;altitude;pressure_sealevel;temperature;humidity
26531;BME280;14201;43.188;24.160;2023-03-01T00:01:27;100560.03;;;7.21;95.52
26531;BME280;14201;43.188;24.160;2023-03-01T00:03:54;100566.75;;;7.30;95.09
26531;BME280;14201;43.188;24.160;2023-03-01T00:06:20;100563.28;;;7.30;94.94
26531;BME280;14201;43.188;24.160;2023-03-01T00:08:46;100557.53;;;7.22;95.27
26531;BME280;14201;43.188;24.160;2023-03-01T00:13:44;100542.34;;;7.15;95.11
26531;BME280;14201;43.188;24.160;2023-03-01T00:16:16;100553.06;;;7.20;95.63
26531;BME280;14201;43.188;24.160;2023-03-01T00:18:42;100543.13;;;7.26;95.79
26531;BME280;14201;43.188;24.160;2023-03-01T00:21:08;100544.00;;;7.26;95.36
26531;BME280;14201;43.188;24.160;2023-03-01T00:23:34;100527.16;;;7.20;95.20
26531;BME280;14201;43.188;24.160;2023-03-01T00:26:00;100519.91;;;7.27;94.97
26531;BME280;14201;43.188;24.160;2023-03-01T00:28:25;100524.22;;;7.27;94.51
26531;BME280;14201;43.188;24.160;2023-03-01T00:30:51;100523.69;;;7.33;94.38
26531;BME280;14201;43.188;24.160;2023-03-01T00:33:17;100521.03;;;7.31;93.55
26531;BME280;14201;43.188;24.160;2023-03-01T00:35:43;100515.50;;;7.26;93.67
26531;BME280;14201;43.188;24.160;2023-03-01T00:38:09;100514.94;;;7.30;92.79
26531;BME280;14201;43.188;24.160;2023-03-01T00:40:36;100502.59;;;7.15;93.26
26531;BME280;14201;43.188;24.160;2023-03-01T00:43:03;100506.66;;;7.11;93.72
26531;BME280;14201;43.188;24.160;2023-03-01T00:45:29;100496.81;;;6.94;94.63
26531;BME280;14201;43.188;24.160;2023-03-01T00:47:56;100495.34;;;6.97;94.70
26531;BME280;14201;43.188;24.160;2023-03-01T00:50:23;100497.97;;;6.85;94.80
26531;BME280;14201;43.188;24.160;2023-03-01T00:52:53;100500.00;;;6.78;96.30
26531;BME280;14201;43.188;24.160;2023-03-01T00:55:18;100497.78;;;6.70;96.60
26531;BME280;14201;43.188;24.160;2023-03-01T00:57:44;100490.84;;;6.58;97.27
26531;BME280;14201;43.188;24.160;2023-03-01T01:00:10;100491.72;;;6.58;97.66
26531;BME280;14201;43.188;24.160;2023-03-01T01:02:37;100493.16;;;6.66;97.71
26531;BME280;14201;43.188;24.160;2023-03-01T01:05:03;100493.59;;;6.73;96.98
26531;BME280;14201;43.188;24.160;2023-03-01T01:07:28;100500.72;;;6.63;97.50
26531;BME280;14201;43.188;24.160;2023-03-01T01:09:54;100499.91;;;6.64;98.87
26531;BME280;14201;43.188;24.160;2023-03-01T01:12:19;100490.53;;;6.78;98.17
26531;BME280;14201;43.188;24.160;2023-03-01T01:14:45;100488.97;;;6.80;96.62
26531;BME280;14201;43.188;24.160;2023-03-01T01:17:11;100484.31;;;6.88;96.15
26531;BME280;14201;43.188;24.160;2023-03-01T01:19:36;100474.09;;;6.89;95.08
26531;BME280;14201;43.188;24.160;2023-03-01T01:22:03;100473.78;;;6.85;95.00
26531;BME280;14201;43.188;24.160;2023-03-01T01:24:29;100478.63;;;6.68;95.83
26531;BME280;14201;43.188;24.160;2023-03-01T01:26:55;100467.91;;;6.87;95.26
26531;BME280;14201;43.188;24.160;2023-03-01T01:29:20;100472.78;;;6.83;95.13
26531;BME280;14201;43.188;24.160;2023-03-01T01:31:46;100467.81;;;6.74;95.58
26531;BME280;14201;43.188;24.160;2023-03-01T01:34:17;100478.06;;;6.73;95.19
26531;BME280;14201;43.188;24.160;2023-03-01T01:36:44;100471.53;;;6.78;94.96
26531;BME280;14201;43.188;24.160;2023-03-01T01:39:09;100474.72;;;6.62;95.65
26531;BME280;14201;43.188;24.160;2023-03-01T01:41:40;100470.00;;;6.56;97.21
26531;BME280;14201;43.188;24.160;2023-03-01T01:44:11;100484.28;;;6.75;96.74
26531;BME280;14201;43.188;24.160;2023-03-01T01:49:49;100480.06;;;6.88;95.26
26531;BME280;14201;43.188;24.160;2023-03-01T01:52:26;100477.03;;;6.82;94.53
26531;BME280;14201;43.188;24.160;2023-03-01T01:55:03;100481.34;;;6.70;95.70
26531;BME280;14201;43.188;24.160;2023-03-01T01:57:37;100481.78;;;6.76;94.61
26531;BME280;14201;43.188;24.160;2023-03-01T02:00:10;100492.03;;;6.63;95.64
26531;BME280;14201;43.188;24.160;2023-03-01T02:02:37;100468.31;;;6.57;96.17
26531;BME280;14201;43.188;24.160;2023-03-01T02:07:52;100486.31;;;6.67;95.88
26531;BME280;14201;43.188;24.160;2023-03-01T02:10:17;100490.16;;;6.60;96.75
26531;BME280;14201;43.188;24.160;2023-03-01T02:12:43;100477.53;;;6.77;95.87
26531;BME280;14201;43.188;24.160;2023-03-01T02:15:09;100465.69;;;6.68;95.51
26531;BME280;14201;43.188;24.160;2023-03-01T02:17:35;100467.84;;;6.62;95.46
26531;BME280;14201;43.188;24.160;2023-03-01T02:22:33;100481.81;;;6.64;95.68
26531;BME280;14201;43.188;24.160;2023-03-01T02:27:42;100477.34;;;6.50;98.39
26531;BME280;14201;43.188;24.160;2023-03-01T02:30:11;100470.69;;;6.54;97.87
26531;BME280;14201;43.188;24.160;2023-03-01T02:32:40;100479.34;;;6.54;98.13
26531;BME280;14201;43.188;24.160;2023-03-01T02:35:13;100484.53;;;6.54;98.73
26531;BME280;14201;43.188;24.160;2023-03-01T02:37:41;100480.13;;;6.53;99.13
26531;BME280;14201;43.188;24.160;2023-03-01T02:40:11;100487.44;;;6.59;99.46
26531;BME280;14201;43.188;24.160;2023-03-01T02:42:48;100478.44;;;6.65;99.59
26531;BME280;14201;43.188;24.160;2023-03-01T02:45:15;100482.34;;;6.72;98.78
26531;BME280;14201;43.188;24.160;2023-03-01T02:47:41;100472.13;;;6.74;97.89
26531;BME280;14201;43.188;24.160;2023-03-01T02:51:00;100480.84;;;6.87;96.62
26531;BME280;14201;43.188;24.160;2023-03-01T02:53:29;100476.38;;;6.85;96.68
26531;BME280;14201;43.188;24.160;2023-03-01T02:56:00;100473.97;;;6.88;96.45
26531;BME280;14201;43.188;24.160;2023-03-01T02:58:26;100469.78;;;6.90;96.49
26531;BME280;14201;43.188;24.160;2023-03-01T03:00:52;100468.00;;;6.89;96.09
26531;BME280;14201;43.188;24.160;2023-03-01T03:03:19;100465.97;;;6.97;95.91
26531;BME280;14201;43.188;24.160;2023-03-01T03:05:45;100467.31;;;6.92;95.75
26531;BME280;14201;43.188;24.160;2023-03-01T03:08:12;100463.72;;;6.89;95.67
26531;BME280;14201;43.188;24.160;2023-03-01T03:10:39;100460.25;;;6.89;96.37
26531;BME280;14201;43.188;24.160;2023-03-01T03:13:07;100461.25;;;6.91;96.43
26531;BME280;14201;43.188;24.160;2023-03-01T03:15:33;100470.34;;;6.98;94.80
26531;BME280;14201;43.188;24.160;2023-03-01T03:18:01;100462.84;;;6.89;95.12
26531;BME280;14201;43.188;24.160;2023-03-01T03:20:27;100466.44;;;6.91;95.01
26531;BME280;14201;43.188;24.160;2023-03-01T03:22:53;100471.63;;;6.91;94.92
26531;BME280;14201;43.188;24.160;2023-03-01T03:25:19;100461.47;;;6.94;95.18
26531;BME280;14201;43.188;24.160;2023-03-01T03:27:46;100467.22;;;6.90;95.44
26531;BME280;14201;43.188;24.160;2023-03-01T03:30:13;100462.38;;;6.95;95.58
26531;BME280;14201;43.188;24.160;2023-03-01T03:32:39;100466.66;;;6.94;95.60
26531;BME280;14201;43.188;24.160;2023-03-01T03:35:06;100466.84;;;6.97;95.31
26531;BME280;14201;43.188;24.160;2023-03-01T03:37:37;100468.00;;;6.89;95.98
26531;BME280;14201;43.188;24.160;2023-03-01T03:40:21;100435.09;;;6.75;96.53
26531;BME280;14201;43.188;24.160;2023-03-01T03:45:31;100464.59;;;7.02;95.50
26531;BME280;14201;43.188;24.160;2023-03-01T03:48:14;100457.72;;;7.02;94.52
26531;BME280;14201;43.188;24.160;2023-03-01T03:50:40;100449.53;;;6.96;94.31
26531;BME280;14201;43.188;24.160;2023-03-01T03:53:11;100459.19;;;6.99;95.11
26531;BME280;14201;43.188;24.160;2023-03-01T03:55:38;100461.56;;;6.96;95.25
26531;BME280;14201;43.188;24.160;2023-03-01T03:58:08;100464.16;;;6.96;95.87
26531;BME280;14201;43.188;24.160;2023-03-01T04:00:37;100459.66;;;6.93;95.83
26531;BME280;14201;43.188;24.160;2023-03-01T04:03:03;100464.16;;;6.96;96.14
26531;BME280;14201;43.188;24.160;2023-03-01T04:05:30;100467.44;;;6.93;96.62
26531;BME280;14201;43.188;24.160;2023-03-01T04:07:56;100469.44;;;6.97;96.16
26531;BME280;14201;43.188;24.160;2023-03-01T04:10:40;100470.34;;;6.98;96.21
26531;BME280;14201;43.188;24.160;2023-03-01T04:13:07;100475.63;;;6.99;95.95
26531;BME280;14201;43.188;24.160;2023-03-01T04:15:34;100469.56;;;6.99;96.16
26531;BME280;14201;43.188;24.160;2023-03-01T04:18:00;100469.88;;;7.03;95.77
26531;BME280;14201;43.188;24.160;2023-03-01T04:20:28;100476.50;;;7.12;95.26
26531;BME280;14201;43.188;24.160;2023-03-01T04:23:06;100482.34;;;7.09;95.05
26531;BME280;14201;43.188;24.160;2023-03-01T04:25:46;100487.88;;;7.14;93.90
26531;BME280;14201;43.188;24.160;2023-03-01T04:28:40;100477.06;;;7.07;94.34
26531;BME280;14201;43.188;24.160;2023-03-01T04:31:11;100485.63;;;7.06;94.48
26531;BME280;14201;43.188;24.160;2023-03-01T04:33:45;100487.81;;;7.00;95.08
26531;BME280;14201;43.188;24.160;2023-03-01T04:36:13;100488.00;;;7.03;95.65
26531;BME280;14201;43.188;24.160;2023-03-01T04:38:39;100475.84;;;7.02;95.90
26531;BME280;14201;43.188;24.160;2023-03-01T04:41:06;100487.75;;;7.12;94.68
26531;BME280;14201;43.188;24.160;2023-03-01T04:43:34;100481.34;;;7.07;94.36
26531;BME280;14201;43.188;24.160;2023-03-01T04:46:02;100483.75;;;7.04;94.55
26531;BME280;14201;43.188;24.160;2023-03-01T04:48:29;100479.22;;;7.01;94.70
26531;BME280;14201;43.188;24.160;2023-03-01T04:50:54;100485.22;;;7.00;94.48
26531;BME280;14201;43.188;24.160;2023-03-01T04:53:20;100482.50;;;6.99;94.79
26531;BME280;14201;43.188;24.160;2023-03-01T04:55:45;100483.50;;;7.01;94.99
26531;BME280;14201;43.188;24.160;2023-03-01T04:58:10;100470.03;;;6.93;95.03
26531;BME280;14201;43.188;24.160;2023-03-01T05:00:36;100474.63;;;6.97;95.19
26531;BME280;14201;43.188;24.160;2023-03-01T05:03:01;100471.16;;;6.97;94.82
26531;BME280;14201;43.188;24.160;2023-03-01T05:05:28;100474.63;;;6.97;94.74
26531;BME280;14201;43.188;24.160;2023-03-01T05:07:54;100467.97;;;7.01;94.41
26531;BME280;14201;43.188;24.160;2023-03-01T05:10:20;100469.41;;;7.09;93.67
26531;BME280;14201;43.188;24.160;2023-03-01T05:12:46;100470.56;;;7.01;93.93
26531;BME280;14201;43.188;24.160;2023-03-01T05:15:11;100471.44;;;7.01;94.29
26531;BME280;14201;43.188;24.160;2023-03-01T05:17:37;100480.03;;;7.00;94.37
26531;BME280;14201;43.188;24.160;2023-03-01T05:20:02;100473.03;;;6.99;94.63
26531;BME280;14201;43.188;24.160;2023-03-01T05:22:32;100470.34;;;6.98;95.05
26531;BME280;14201;43.188;24.160;2023-03-01T05:24:58;100469.25;;;6.94;95.41
26531;BME280;14201;43.188;24.160;2023-03-01T05:27:23;100470.25;;;6.96;95.52
26531;BME280;14201;43.188;24.160;2023-03-01T05:29:49;100460.09;;;6.99;94.35
26531;BME280;14201;43.188;24.160;2023-03-01T05:32:14;100465.06;;;6.96;94.44
26531;BME280;14201;43.188;24.160;2023-03-01T05:34:40;100451.75;;;7.03;93.94
26531;BME280;14201;43.188;24.160;2023-03-01T05:37:06;100444.56;;;6.99;93.70
26531;BME280;14201;43.188;24.160;2023-03-01T05:39:33;100458.31;;;6.98;94.40
26531;BME280;14201;43.188;24.160;2023-03-01T05:42:00;100457.88;;;6.92;94.99
26531;BME280;14201;43.188;24.160;2023-03-01T05:44:28;100463.50;;;6.98;94.71
26531;BME280;14201;43.188;24.160;2023-03-01T05:46:54;100469.91;;;6.92;95.12
26531;BME280;14201;43.188;24.160;2023-03-01T05:49:20;100470.72;;;6.90;95.49
26531;BME280;14201;43.188;24.160;2023-03-01T05:51:51;100470.91;;;6.94;95.63
26531;BME280;14201;43.188;24.160;2023-03-01T05:54:18;100470.03;;;6.93;95.69
26531;BME280;14201;43.188;24.160;2023-03-01T05:56:44;100464.63;;;6.90;95.39
26531;BME280;14201;43.188;24.160;2023-03-01T05:59:10;100477.31;;;6.99;95.11
26531;BME280;14201;43.188;24.160;2023-03-01T06:01:36;100465.06;;;6.96;94.84
26531;BME280;14201;43.188;24.160;2023-03-01T06:04:02;100471.03;;;6.95;95.20
26531;BME280;14201;43.188;24.160;2023-03-01T06:06:28;100474.50;;;6.96;95.86
26531;BME280;14201;43.188;24.160;2023-03-01T06:08:53;100477.91;;;6.95;95.72
26531;BME280;14201;43.188;24.160;2023-03-01T06:11:20;100481.81;;;7.01;94.60
26531;BME280;14201;43.188;24.160;2023-03-01T06:13:46;100473.03;;;6.99;94.79
26531;BME280;14201;43.188;24.160;2023-03-01T06:16:12;100478.56;;;7.04;94.46
26531;BME280;14201;43.188;24.160;2023-03-01T06:18:38;100486.41;;;7.05;94.31
26531;BME280;14201;43.188;24.160;2023-03-01T06:21:06;100482.63;;;7.00;94.59
26531;BME280;14201;43.188;24.160;2023-03-01T06:23:32;100487.34;;;7.06;94.46
26531;BME280;14201;43.188;24.160;2023-03-01T06:25:58;100474.03;;;7.01;94.14
26531;BME280;14201;43.188;24.160;2023-03-01T06:28:23;100478.75;;;7.07;94.05
26531;BME280;14201;43.188;24.160;2023-03-01T06:30:50;100484.63;;;7.04;94.38
26531;BME280;14201;43.188;24.160;2023-03-01T06:33:17;100492.81;;;7.10;93.99
26531;BME280;14201;43.188;24.160;2023-03-01T06:35:46;100476.50;;;7.12;93.34
26531;BME280;14201;43.188;24.160;2023-03-01T06:38:12;100480.44;;;7.06;93.68
26531;BME280;14201;43.188;24.160;2023-03-01T06:40:40;100485.47;;;7.17;92.94
26531;BME280;14201;43.188;24.160;2023-03-01T06:43:06;100490.00;;;7.19;92.72
26531;BME280;14201;43.188;24.160;2023-03-01T06:45:33;100488.19;;;7.18;92.43
26531;BME280;14201;43.188;24.160;2023-03-01T06:48:06;100490.88;;;7.20;92.85
26531;BME280;14201;43.188;24.160;2023-03-01T06:50:32;100489.81;;;7.29;92.94
26531;BME280;14201;43.188;24.160;2023-03-01T06:52:57;100487.13;;;7.28;92.49
26531;BME280;14201;43.188;24.160;2023-03-01T06:55:23;100484.94;;;7.34;91.59
26531;BME280;14201;43.188;24.160;2023-03-01T06:57:48;100489.59;;;7.26;91.58
26531;BME280;14201;43.188;24.160;2023-03-01T07:00:14;100477.75;;;7.30;91.86
26531;BME280;14201;43.188;24.160;2023-03-01T07:02:40;100471.22;;;7.35;91.12
26531;BME280;14201;43.188;24.160;2023-03-01T07:05:06;100484.16;;;7.35;90.75
26531;BME280;14201;43.188;24.160;2023-03-01T07:07:32;100482.75;;;7.27;91.20
26531;BME280;14201;43.188;24.160;2023-03-01T07:09:57;100487.00;;;7.26;91.78
26531;BME280;14201;43.188;24.160;2023-03-01T07:12:23;100484.53;;;7.28;92.18
26531;BME280;14201;43.188;24.160;2023-03-01T07:14:49;100480.88;;;7.38;91.76
26531;BME280;14201;43.188;24.160;2023-03-01T07:17:14;100474.81;;;7.37;92.41
26531;BME280;14201;43.188;24.160;2023-03-01T07:19:40;100475.91;;;7.41;91.82
26531;BME280;14201;43.188;24.160;2023-03-01T07:22:05;100470.72;;;7.41;92.46
26531;BME280;14201;43.188;24.160;2023-03-01T07:24:33;100468.03;;;7.39;92.70
26531;BME280;14201;43.188;24.160;2023-03-01T07:26:59;100459.88;;;7.46;91.85
26531;BME280;14201;43.188;24.160;2023-03-01T07:29:24;100460.94;;;7.62;90.11
26531;BME280;14201;43.188;24.160;2023-03-01T07:31:50;100459.28;;;7.51;88.85
26531;BME280;14201;43.188;24.160;2023-03-01T07:34:15;100465.97;;;7.47;88.88
26531;BME280;14201;43.188;24.160;2023-03-01T07:36:41;100459.38;;;7.52;89.46
26531;BME280;14201;43.188;24.160;2023-03-01T07:39:09;100471.06;;;7.59;88.51
26531;BME280;14201;43.188;24.160;2023-03-01T07:41:34;100460.28;;;7.53;88.52
26531;BME280;14201;43.188;24.160;2023-03-01T07:44:00;100460.66;;;7.45;90.30
26531;BME280;14201;43.188;24.160;2023-03-01T07:46:25;100463.47;;;7.48;90.74
26531;BME280;14201;43.188;24.160;2023-03-01T07:48:51;100464.38;;;7.49;90.92
26531;BME280;14201;43.188;24.160;2023-03-01T07:51:16;100473.38;;;7.54;89.52
26531;BME280;14201;43.188;24.160;2023-03-01T07:53:41;100467.75;;;7.48;89.97
26531;BME280;14201;43.188;24.160;2023-03-01T07:56:08;100464.84;;;7.43;90.74
26531;BME280;14201;43.188;24.160;2023-03-01T07:58:37;100465.25;;;7.49;90.74
26531;BME280;14201;43.188;24.160;2023-03-01T08:01:03;100477.03;;;7.58;89.82
26531;BME280;14201;43.188;24.160;2023-03-01T08:03:28;100475.97;;;7.54;90.21
26531;BME280;14201;43.188;24.160;2023-03-01T08:05:54;100478.25;;;7.63;90.34
26531;BME280;14201;43.188;24.160;2023-03-01T08:08:19;100475.06;;;7.67;88.81
26531;BME280;14201;43.188;24.160;2023-03-01T08:10:45;100468.47;;;7.59;89.68
26531;BME280;14201;43.188;24.160;2023-03-01T08:13:10;100461.69;;;7.61;89.91
26531;BME280;14201;43.188;24.160;2023-03-01T08:15:36;100459.91;;;7.73;89.01
26531;BME280;14201;43.188;24.160;2023-03-01T08:18:02;100470.28;;;7.73;88.87
26531;BME280;14201;43.188;24.160;2023-03-01T08:20:27;100455.53;;;7.59;89.22
26531;BME280;14201;43.188;24.160;2023-03-01T08:22:53;100463.31;;;7.72;88.32
26531;BME280;14201;43.188;24.160;2023-03-01T08:25:18;100461.50;;;7.71;88.92
26531;BME280;14201;43.188;24.160;2023-03-01T08:27:44;100465.69;;;7.69;89.74
26531;BME280;14201;43.188;24.160;2023-03-01T08:30:11;100467.28;;;7.67;90.40
26531;BME280;14201;43.188;24.160;2023-03-01T08:32:38;100461.50;;;7.71;88.45
26531;BME280;14201;43.188;24.160;2023-03-01T08:35:04;100471.88;;;7.71;88.70
26531;BME280;14201;43.188;24.160;2023-03-01T08:37:30;100462.69;;;7.63;89.22
26531;BME280;14201;43.188;24.160;2023-03-01T08:39:59;100472.81;;;7.72;88.91
26531;BME280;14201;43.188;24.160;2023-03-01T08:42:26;100475.78;;;7.64;88.96
26531;BME280;14201;43.188;24.160;2023-03-01T08:44:51;100471.06;;;7.59;89.91
26531;BME280;14201;43.188;24.160;2023-03-01T08:47:17;100460.09;;;7.63;90.50
26531;BME280;14201;43.188;24.160;2023-03-01T08:49:43;100468.63;;;7.74;89.97
26531;BME280;14201;43.188;24.160;2023-03-01T08:52:08;100450.56;;;7.62;89.52
26531;BME280;14201;43.188;24.160;2023-03-01T08:54:34;100462.69;;;7.63;90.10
26531;BME280;14201;43.188;24.160;2023-03-01T08:57:01;100471.09;;;7.72;89.85
26531;BME280;14201;43.188;24.160;2023-03-01T08:59:27;100465.13;;;7.86;89.01
26531;BME280;14201;43.188;24.160;2023-03-01T09:01:54;100464.94;;;7.83;88.95
26531;BME280;14201;43.188;24.160;2023-03-01T09:04:20;100464.94;;;7.83;88.99
26531;BME280;14201;43.188;24.160;2023-03-01T09:06:46;100444.19;;;7.70;89.17
26531;BME280;14201;43.188;24.160;2023-03-01T09:09:17;100472.91;;;7.86;88.37
26531;BME280;14201;43.188;24.160;2023-03-01T09:11:43;100458.16;;;7.72;88.56
26531;BME280;14201;43.188;24.160;2023-03-01T09:14:14;100476.91;;;7.81;88.65
26531;BME280;14201;43.188;24.160;2023-03-01T09:16:39;100475.63;;;7.88;88.49
26531;BME280;14201;43.188;24.160;2023-03-01T09:19:05;100475.00;;;7.79;88.79
26531;BME280;14201;43.188;24.160;2023-03-01T09:21:31;100480.28;;;7.80;89.46
26531;BME280;14201;43.188;24.160;2023-03-01T09:23:57;100478.91;;;7.85;89.23
26531;BME280;14201;43.188;24.160;2023-03-01T09:26:24;100474.13;;;7.92;88.17
26531;BME280;14201;43.188;24.160;2023-03-01T09:28:52;100482.50;;;7.87;88.28
26531;BME280;14201;43.188;24.160;2023-03-01T09:31:20;100477.31;;;7.87;88.15
26531;BME280;14201;43.188;24.160;2023-03-01T09:33:48;100481.09;;;7.93;87.45
26531;BME280;14201;43.188;24.160;2023-03-01T09:36:17;100479.22;;;7.90;87.30
26531;BME280;14201;43.188;24.160;2023-03-01T09:38:43;100455.06;;;7.78;87.71
26531;BME280;14201;43.188;24.160;2023-03-01T09:44:03;100469.31;;;7.84;87.75
26531;BME280;14201;43.188;24.160;2023-03-01T09:46:36;100457.75;;;7.79;87.66
26531;BME280;14201;43.188;24.160;2023-03-01T09:49:19;100454.94;;;7.76;89.25
26531;BME280;14201;43.188;24.160;2023-03-01T09:51:59;100466.47;;;7.93;89.27
26531;BME280;14201;43.188;24.160;2023-03-01T09:54:25;100473.41;;;7.94;88.92
26531;BME280;14201;43.188;24.160;2023-03-01T09:59:40;100470.56;;;8.03;87.83
26531;BME280;14201;43.188;24.160;2023-03-01T10:05:48;100459.28;;;7.89;87.64
26531;BME280;14201;43.188;24.160;2023-03-01T10:11:26;100462.25;;;7.95;87.75
26531;BME280;14201;43.188;24.160;2023-03-01T10:14:01;100470.13;;;7.97;88.50
26531;BME280;14201;43.188;24.160;2023-03-01T10:19:04;100449.59;;;8.00;88.17
26531;BME280;14201;43.188;24.160;2023-03-01T10:21:36;100452.56;;;8.06;87.59
26531;BME280;14201;43.188;24.160;2023-03-01T10:24:14;100451.28;;;7.99;87.14
26531;BME280;14201;43.188;24.160;2023-03-01T10:29:11;100449.28;;;7.95;88.18
26531;BME280;14201;43.188;24.160;2023-03-01T10:31:49;100437.59;;;8.02;87.72
26531;BME280;14201;43.188;24.160;2023-03-01T10:34:28;100432.63;;;7.92;88.63
26531;BME280;14201;43.188;24.160;2023-03-01T10:36:57;100435.41;;;7.95;89.12
26531;BME280;14201;43.188;24.160;2023-03-01T10:39:25;100432.25;;;7.99;88.97
26531;BME280;14201;43.188;24.160;2023-03-01T10:42:05;100438.31;;;7.99;89.41
26531;BME280;14201;43.188;24.160;2023-03-01T10:44:46;100436.72;;;8.01;89.60
26531;BME280;14201;43.188;24.160;2023-03-01T10:47:16;100434.22;;;8.03;89.90
26531;BME280;14201;43.188;24.160;2023-03-01T10:49:57;100432.31;;;8.00;89.67
26531;BME280;14201;43.188;24.160;2023-03-01T10:52:27;100430.91;;;7.92;90.37
26531;BME280;14201;43.188;24.160;2023-03-01T10:57:42;100434.22;;;7.89;90.76
26531;BME280;14201;43.188;24.160;2023-03-01T11:00:20;100427.94;;;7.99;91.27
26531;BME280;14201;43.188;24.160;2023-03-01T11:03:01;100412.75;;;7.92;91.22
26531;BME280;14201;43.188;24.160;2023-03-01T11:05:28;100422.16;;;7.90;91.86
26531;BME280;14201;43.188;24.160;2023-03-01T11:07:59;100421.16;;;7.88;91.91
26531;BME280;14201;43.188;24.160;2023-03-01T11:10:35;100412.88;;;7.94;92.40
26531;BME280;14201;43.188;24.160;2023-03-01T11:15:32;100400.50;;;8.03;90.19
26531;BME280;14201;43.188;24.160;2023-03-01T11:17:58;100398.69;;;8.02;90.38
26531;BME280;14201;43.188;24.160;2023-03-01T11:23:12;100392.22;;;8.08;91.28
26531;BME280;14201;43.188;24.160;2023-03-01T11:25:48;100383.22;;;8.17;89.50
26531;BME280;14201;43.188;24.160;2023-03-01T11:28:17;100379.44;;;8.12;89.21
26531;BME280;14201;43.188;24.160;2023-03-01T11:30:56;100379.81;;;8.04;89.94
26531;BME280;14201;43.188;24.160;2023-03-01T11:33:53;100373.56;;;8.01;90.15
26531;BME280;14201;43.188;24.160;2023-03-01T11:36:39;100376.84;;;7.98;90.29
26531;BME280;14201;43.188;24.160;2023-03-01T11:42:14;100369.53;;;8.19;89.44
26531;BME280;14201;43.188;24.160;2023-03-01T11:44:43;100368.16;;;8.24;87.48
26531;BME280;14201;43.188;24.160;2023-03-01T11:50:05;100366.06;;;8.19;88.23
26531;BME280;14201;43.188;24.160;2023-03-01T11:52:46;100355.38;;;8.14;89.01
26531;BME280;14201;43.188;24.160;2023-03-01T12:03:45;100349.13;;;7.97;89.04
26531;BME280;14201;43.188;24.160;2023-03-01T12:06:35;100344.44;;;8.05;89.13
26531;BME280;14201;43.188;24.160;2023-03-01T12:09:13;100343.00;;;8.10;89.49
26531;BME280;14201;43.188;24.160;2023-03-01T12:20:28;100340.59;;;8.26;88.79
26531;BME280;14201;43.188;24.160;2023-03-01T12:31:44;100344.88;;;8.26;89.16
26531;BME280;14201;43.188;24.160;2023-03-01T12:34:26;100341.47;;;8.27;89.32
26531;BME280;14201;43.188;24.160;2023-03-01T12:42:31;100341.81;;;8.18;88.19
26531;BME280;14201;43.188;24.160;2023-03-01T12:48:35;100335.44;;;8.00;90.38
26531;BME280;14201;43.188;24.160;2023-03-01T12:53:03;100335.81;;;8.06;91.84
26531;BME280;14201;43.188;24.160;2023-03-01T12:55:30;100338.03;;;8.13;91.24
26531;BME280;14201;43.188;24.160;2023-03-01T12:58:05;100331.13;;;8.14;91.14
26531;BME280;14201;43.188;24.160;2023-03-01T13:00:36;100339.63;;;8.11;91.46
26531;BME280;14201;43.188;24.160;2023-03-01T13:05:40;100331.94;;;8.13;91.68
26531;BME280;14201;43.188;24.160;2023-03-01T13:10:55;100337.38;;;8.31;88.22
26531;BME280;14201;43.188;24.160;2023-03-01T13:13:22;100334.03;;;8.18;88.86
26531;BME280;14201;43.188;24.160;2023-03-01T13:15:48;100332.69;;;8.25;88.22
26531;BME280;14201;43.188;24.160;2023-03-01T13:23:10;100328.66;;;8.02;90.55
26531;BME280;14201;43.188;24.160;2023-03-01T13:25:59;100327.06;;;8.04;91.12
26531;BME280;14201;43.188;24.160;2023-03-01T13:28:55;100328.28;;;7.96;91.95
26531;BME280;14201;43.188;24.160;2023-03-01T13:33:52;100318.28;;;8.02;92.39
26531;BME280;14201;43.188;24.160;2023-03-01T13:39:30;100321.56;;;8.13;91.89
26531;BME280;14201;43.188;24.160;2023-03-01T13:41:58;100302.47;;;8.12;91.84
26531;BME280;14201;43.188;24.160;2023-03-01T13:44:37;100298.59;;;8.19;91.51
26531;BME280;14201;43.188;24.160;2023-03-01T13:47:16;100294.25;;;8.33;90.12
26531;BME280;14201;43.188;24.160;2023-03-01T13:49:53;100291.94;;;8.37;89.61
26531;BME280;14201;43.188;24.160;2023-03-01T13:52:39;100288.84;;;8.29;89.59
26531;BME280;14201;43.188;24.160;2023-03-01T13:57:41;100287.69;;;8.24;89.90
26531;BME280;14201;43.188;24.160;2023-03-01T14:00:31;100275.66;;;8.12;90.80
26531;BME280;14201;43.188;24.160;2023-03-01T14:03:12;100296.88;;;8.19;90.75
26531;BME280;14201;43.188;24.160;2023-03-01T14:05:41;100283.75;;;8.16;91.22
26531;BME280;14201;43.188;24.160;2023-03-01T14:08:22;100294.19;;;8.18;90.85
26531;BME280;14201;43.188;24.160;2023-03-01T14:19:14;100293.09;;;8.14;90.24
26531;BME280;14201;43.188;24.160;2023-03-01T14:21:42;100292.91;;;8.11;90.82
26531;BME280;14201;43.188;24.160;2023-03-01T14:24:18;100292.69;;;8.21;90.92
26531;BME280;14201;43.188;24.160;2023-03-01T14:26:45;100282.53;;;8.11;91.07
26531;BME280;14201;43.188;24.160;2023-03-01T14:29:35;100297.41;;;8.14;91.27
26531;BME280;14201;43.188;24.160;2023-03-01T14:32:21;100291.53;;;8.16;91.51
26531;BME280;14201;43.188;24.160;2023-03-01T14:34:48;100294.81;;;8.14;91.14
26531;BME280;14201;43.188;24.160;2023-03-01T14:39:44;100294.59;;;8.24;90.15
26531;BME280;14201;43.188;24.160;2023-03-01T14:42:12;100296.88;;;7.91;90.63
26531;BME280;14201;43.188;24.160;2023-03-01T14:44:42;100291.38;;;7.86;91.44
26531;BME280;14201;43.188;24.160;2023-03-01T14:47:15;100299.53;;;7.93;90.93
26531;BME280;14201;43.188;24.160;2023-03-01T14:49:44;100295.75;;;8.01;91.13
26531;BME280;14201;43.188;24.160;2023-03-01T14:52:21;100292.72;;;8.08;91.03
26531;BME280;14201;43.188;24.160;2023-03-01T14:54:48;100288.63;;;8.12;90.75